This is the latest recevied weather packets stored in our database for station/object K5OBH. If no packets are shown the sender has not sent any weather packets the latest 1 day(s).
| Time | Temp. | Humidity | Pressure | Rain* | Wind** | Luminosity | Snow |
|---|---|---|---|---|---|---|---|
| 1778094399 | 17.22° C | 55% | 1016 hPa | 0 mm | - | 974 W/m² | - |
| 1778092883 | 16.67° C | 55% | 1016.2 hPa | 0 mm | - | 878 W/m² | - |
| 1778092580 | 16.11° C | 57% | 1015.9 hPa | 0 mm | - | 854 W/m² | - |
| 1778092276 | 16.67° C | 55% | 1016.4 hPa | 0 mm | - | 328 W/m² | - |
| 1778091974 | 16.11° C | 57% | 1016.2 hPa | 0 mm | - | 876 W/m² | - |
| 1778091065 | 15.56° C | 58% | 1016.7 hPa | 0 mm | - | 864 W/m² | - |
| 1778090762 | 16.11° C | 57% | 1016.6 hPa | 0 mm | - | 855 W/m² | - |
| 1778089851 | 15.56° C | 57% | 1017 hPa | 0 mm | - | 813 W/m² | - |
| 1778088640 | 15° C | 62% | 1017.3 hPa | 0 mm | - | 836 W/m² | - |
| 1778087126 | 13.89° C | 62% | 1017 hPa | 0 mm | - | 781 W/m² | - |
| 1778086516 | 13.89° C | 62% | 1017.1 hPa | 0 mm | - | 748 W/m² | - |
| 1778084996 | 12.78° C | 67% | 1017.3 hPa | 0 mm | - | 403 W/m² | - |
| 1778084391 | 12.78° C | 67% | 1017.1 hPa | 0 mm | - | 379 W/m² | - |
| 1778084089 | 12.78° C | 66% | 1017.4 hPa | 0 mm | - | 360 W/m² | - |
| 1778083781 | 12.78° C | 67% | 1017.3 hPa | 0 mm | - | 262 W/m² | - |
| 1778081765 | 11.11° C | 73% | 1017.3 hPa | 0 mm | - | 204 W/m² | - |
| 1778080857 | 11.11° C | 73% | 1016.9 hPa | 0 mm | - | 247 W/m² | - |
| 1778080555 | 11.11° C | 73% | 1017 hPa | 0 mm | - | 265 W/m² | - |
| 1778080252 | 11.11° C | 73% | 1016.8 hPa | 0 mm | - | 238 W/m² | - |
| 1778079342 | 11.11° C | 74% | 1016.6 hPa | 0 mm | - | 355 W/m² | - |
| 1778078736 | 10.56° C | 75% | 1016.1 hPa | 0 mm | - | 261 W/m² | - |
| 1778078131 | 10.56° C | 77% | 1016.1 hPa | 0 mm | - | 190 W/m² | - |
| 1778076922 | 10° C | 78% | 1015.8 hPa | 0 mm | - | 186 W/m² | - |
| 1778075711 | 10° C | 79% | 1016.2 hPa | 0 mm | - | 99 W/m² | - |
| 1778074800 | 10° C | 80% | 1016.2 hPa | 0 mm | - | 98 W/m² | - |
* Rain latest hour (hover to see other rain measurements)
** Current wind speed in m/s (hover to see current wind gust speed)